sensor_id;sensor_type;location;lat;lon;timestamp;pressure;altitude;pressure_sealevel;temperature
14851;BMP180;7517;48.400;11.770;2023-03-31T00:00:44;95981.00;;;12.70
14851;BMP180;7517;48.400;11.770;2023-03-31T00:03:12;95983.00;;;12.70
14851;BMP180;7517;48.400;11.770;2023-03-31T00:05:47;95980.00;;;12.70
14851;BMP180;7517;48.400;11.770;2023-03-31T00:08:20;95966.00;;;12.60
14851;BMP180;7517;48.400;11.770;2023-03-31T00:10:49;95956.00;;;12.60
14851;BMP180;7517;48.400;11.770;2023-03-31T00:13:17;95958.00;;;12.50
14851;BMP180;7517;48.400;11.770;2023-03-31T00:15:44;95964.00;;;12.50
14851;BMP180;7517;48.400;11.770;2023-03-31T00:18:11;95960.00;;;12.40
14851;BMP180;7517;48.400;11.770;2023-03-31T00:20:38;95947.00;;;12.40
14851;BMP180;7517;48.400;11.770;2023-03-31T00:23:08;95945.00;;;12.30
14851;BMP180;7517;48.400;11.770;2023-03-31T00:25:38;95931.00;;;12.30
14851;BMP180;7517;48.400;11.770;2023-03-31T00:28:07;95934.00;;;12.30
14851;BMP180;7517;48.400;11.770;2023-03-31T00:30:34;95932.00;;;12.30
14851;BMP180;7517;48.400;11.770;2023-03-31T00:33:03;95943.00;;;12.20
14851;BMP180;7517;48.400;11.770;2023-03-31T00:35:30;95935.00;;;12.20
14851;BMP180;7517;48.400;11.770;2023-03-31T00:37:58;95927.00;;;12.20
14851;BMP180;7517;48.400;11.770;2023-03-31T00:40:25;95928.00;;;12.10
14851;BMP180;7517;48.400;11.770;2023-03-31T00:42:54;95922.00;;;12.10
14851;BMP180;7517;48.400;11.770;2023-03-31T00:45:28;95921.00;;;12.10
14851;BMP180;7517;48.400;11.770;2023-03-31T00:48:05;95916.00;;;12.00
14851;BMP180;7517;48.400;11.770;2023-03-31T00:50:42;95915.00;;;12.00
14851;BMP180;7517;48.400;11.770;2023-03-31T00:53:16;95913.00;;;11.90
14851;BMP180;7517;48.400;11.770;2023-03-31T00:55:49;95906.00;;;11.90
14851;BMP180;7517;48.400;11.770;2023-03-31T00:58:21;95905.00;;;11.90
14851;BMP180;7517;48.400;11.770;2023-03-31T01:00:56;95894.00;;;11.80
14851;BMP180;7517;48.400;11.770;2023-03-31T01:03:24;95891.00;;;11.80
14851;BMP180;7517;48.400;11.770;2023-03-31T01:05:55;95882.00;;;11.80
14851;BMP180;7517;48.400;11.770;2023-03-31T01:08:26;95876.00;;;11.80
14851;BMP180;7517;48.400;11.770;2023-03-31T01:10:57;95874.00;;;11.80
14851;BMP180;7517;48.400;11.770;2023-03-31T01:13:29;95870.00;;;11.80
14851;BMP180;7517;48.400;11.770;2023-03-31T01:15:57;95854.00;;;11.80
14851;BMP180;7517;48.400;11.770;2023-03-31T01:18:25;95861.00;;;11.90
14851;BMP180;7517;48.400;11.770;2023-03-31T01:21:42;95855.00;;;11.90
14851;BMP180;7517;48.400;11.770;2023-03-31T01:27:59;95849.00;;;11.80
14851;BMP180;7517;48.400;11.770;2023-03-31T01:34:33;95851.00;;;11.90
14851;BMP180;7517;48.400;11.770;2023-03-31T01:38:01;95846.00;;;12.00
14851;BMP180;7517;48.400;11.770;2023-03-31T01:40:49;95830.00;;;12.00
14851;BMP180;7517;48.400;11.770;2023-03-31T01:43:23;95824.00;;;12.00
14851;BMP180;7517;48.400;11.770;2023-03-31T01:45:59;95821.00;;;12.00
14851;BMP180;7517;48.400;11.770;2023-03-31T01:48:41;95807.00;;;12.00
14851;BMP180;7517;48.400;11.770;2023-03-31T01:51:16;95807.00;;;12.00
14851;BMP180;7517;48.400;11.770;2023-03-31T01:53:50;95808.00;;;12.00
14851;BMP180;7517;48.400;11.770;2023-03-31T01:56:29;95802.00;;;12.00
14851;BMP180;7517;48.400;11.770;2023-03-31T01:59:02;95795.00;;;12.00
14851;BMP180;7517;48.400;11.770;2023-03-31T02:01:39;95793.00;;;11.90
14851;BMP180;7517;48.400;11.770;2023-03-31T02:04:14;95788.00;;;11.90
14851;BMP180;7517;48.400;11.770;2023-03-31T02:06:50;95786.00;;;11.90
14851;BMP180;7517;48.400;11.770;2023-03-31T02:09:24;95780.00;;;11.90
14851;BMP180;7517;48.400;11.770;2023-03-31T02:11:56;95775.00;;;11.90
14851;BMP180;7517;48.400;11.770;2023-03-31T02:14:29;95775.00;;;11.90
14851;BMP180;7517;48.400;11.770;2023-03-31T02:16:58;95766.00;;;11.90
14851;BMP180;7517;48.400;11.770;2023-03-31T02:19:34;95768.00;;;11.90
14851;BMP180;7517;48.400;11.770;2023-03-31T02:22:07;95767.00;;;11.90
14851;BMP180;7517;48.400;11.770;2023-03-31T02:24:37;95763.00;;;11.90
14851;BMP180;7517;48.400;11.770;2023-03-31T02:27:15;95770.00;;;11.90
14851;BMP180;7517;48.400;11.770;2023-03-31T02:29:43;95753.00;;;11.90
14851;BMP180;7517;48.400;11.770;2023-03-31T02:32:18;95756.00;;;11.90
14851;BMP180;7517;48.400;11.770;2023-03-31T02:34:49;95753.00;;;11.90
14851;BMP180;7517;48.400;11.770;2023-03-31T02:37:17;95748.00;;;11.90
14851;BMP180;7517;48.400;11.770;2023-03-31T02:39:47;95740.00;;;11.90
14851;BMP180;7517;48.400;11.770;2023-03-31T02:42:18;95741.00;;;12.00
14851;BMP180;7517;48.400;11.770;2023-03-31T02:44:46;95739.00;;;12.00
14851;BMP180;7517;48.400;11.770;2023-03-31T02:47:16;95754.00;;;12.00
14851;BMP180;7517;48.400;11.770;2023-03-31T02:49:48;95747.00;;;12.00
14851;BMP180;7517;48.400;11.770;2023-03-31T02:52:37;95748.00;;;12.00
14851;BMP180;7517;48.400;11.770;2023-03-31T02:55:37;95736.00;;;12.00
14851;BMP180;7517;48.400;11.770;2023-03-31T02:58:40;95739.00;;;12.00
14851;BMP180;7517;48.400;11.770;2023-03-31T03:01:30;95734.00;;;12.00
14851;BMP180;7517;48.400;11.770;2023-03-31T03:04:19;95729.00;;;12.00
14851;BMP180;7517;48.400;11.770;2023-03-31T03:07:02;95730.00;;;12.10
14851;BMP180;7517;48.400;11.770;2023-03-31T03:09:42;95725.00;;;12.10
14851;BMP180;7517;48.400;11.770;2023-03-31T03:12:18;95729.00;;;12.10
14851;BMP180;7517;48.400;11.770;2023-03-31T03:14:58;95730.00;;;12.20
14851;BMP180;7517;48.400;11.770;2023-03-31T03:17:33;95728.00;;;12.20
14851;BMP180;7517;48.400;11.770;2023-03-31T03:20:04;95733.00;;;12.20
14851;BMP180;7517;48.400;11.770;2023-03-31T03:22:33;95735.00;;;12.20
14851;BMP180;7517;48.400;11.770;2023-03-31T03:25:01;95736.00;;;12.30
14851;BMP180;7517;48.400;11.770;2023-03-31T03:27:28;95739.00;;;12.30
14851;BMP180;7517;48.400;11.770;2023-03-31T03:29:57;95734.00;;;12.30
14851;BMP180;7517;48.400;11.770;2023-03-31T03:32:26;95738.00;;;12.30
14851;BMP180;7517;48.400;11.770;2023-03-31T03:34:56;95742.00;;;12.40
14851;BMP180;7517;48.400;11.770;2023-03-31T03:37:23;95733.00;;;12.40
14851;BMP180;7517;48.400;11.770;2023-03-31T03:39:51;95749.00;;;12.40
14851;BMP180;7517;48.400;11.770;2023-03-31T03:42:19;95754.00;;;12.40
14851;BMP180;7517;48.400;11.770;2023-03-31T03:44:46;95753.00;;;12.50
14851;BMP180;7517;48.400;11.770;2023-03-31T03:47:16;95762.00;;;12.50
14851;BMP180;7517;48.400;11.770;2023-03-31T03:49:44;95765.00;;;12.50
14851;BMP180;7517;48.400;11.770;2023-03-31T03:52:13;95754.00;;;12.60
14851;BMP180;7517;48.400;11.770;2023-03-31T03:54:40;95758.00;;;12.60
14851;BMP180;7517;48.400;11.770;2023-03-31T03:57:08;95752.00;;;12.60
14851;BMP180;7517;48.400;11.770;2023-03-31T03:59:36;95752.00;;;12.60
14851;BMP180;7517;48.400;11.770;2023-03-31T04:02:03;95743.00;;;12.60
14851;BMP180;7517;48.400;11.770;2023-03-31T04:04:32;95729.00;;;12.60
14851;BMP180;7517;48.400;11.770;2023-03-31T04:06:59;95719.00;;;12.70
14851;BMP180;7517;48.400;11.770;2023-03-31T04:09:28;95706.00;;;12.70
14851;BMP180;7517;48.400;11.770;2023-03-31T04:11:55;95703.00;;;12.70
14851;BMP180;7517;48.400;11.770;2023-03-31T04:14:24;95709.00;;;12.80
14851;BMP180;7517;48.400;11.770;2023-03-31T04:16:51;95708.00;;;12.80
14851;BMP180;7517;48.400;11.770;2023-03-31T04:19:21;95714.00;;;12.90
14851;BMP180;7517;48.400;11.770;2023-03-31T04:21:53;95699.00;;;12.90
14851;BMP180;7517;48.400;11.770;2023-03-31T04:24:27;95700.00;;;13.00
14851;BMP180;7517;48.400;11.770;2023-03-31T04:26:58;95703.00;;;13.00
14851;BMP180;7517;48.400;11.770;2023-03-31T04:29:27;95704.00;;;13.10
14851;BMP180;7517;48.400;11.770;2023-03-31T04:31:58;95703.00;;;13.10
14851;BMP180;7517;48.400;11.770;2023-03-31T04:34:26;95695.00;;;13.20
14851;BMP180;7517;48.400;11.770;2023-03-31T04:37:02;95689.00;;;13.20
14851;BMP180;7517;48.400;11.770;2023-03-31T04:39:30;95684.00;;;13.30
14851;BMP180;7517;48.400;11.770;2023-03-31T04:41:58;95674.00;;;13.30
14851;BMP180;7517;48.400;11.770;2023-03-31T04:44:27;95669.00;;;13.30
14851;BMP180;7517;48.400;11.770;2023-03-31T04:46:55;95662.00;;;13.30
14851;BMP180;7517;48.400;11.770;2023-03-31T04:49:23;95652.00;;;13.30
14851;BMP180;7517;48.400;11.770;2023-03-31T04:51:51;95643.00;;;13.30
14851;BMP180;7517;48.400;11.770;2023-03-31T04:54:20;95647.00;;;13.40
14851;BMP180;7517;48.400;11.770;2023-03-31T04:56:47;95653.00;;;13.40
14851;BMP180;7517;48.400;11.770;2023-03-31T04:59:15;95651.00;;;13.40
14851;BMP180;7517;48.400;11.770;2023-03-31T05:01:42;95642.00;;;13.40
14851;BMP180;7517;48.400;11.770;2023-03-31T05:04:10;95611.00;;;13.40
14851;BMP180;7517;48.400;11.770;2023-03-31T05:06:38;95605.00;;;13.40
14851;BMP180;7517;48.400;11.770;2023-03-31T05:09:06;95602.00;;;13.40
14851;BMP180;7517;48.400;11.770;2023-03-31T05:11:36;95589.00;;;13.30
14851;BMP180;7517;48.400;11.770;2023-03-31T05:14:03;95574.00;;;13.30
14851;BMP180;7517;48.400;11.770;2023-03-31T05:16:31;95566.00;;;13.30
14851;BMP180;7517;48.400;11.770;2023-03-31T05:18:58;95559.00;;;13.30
14851;BMP180;7517;48.400;11.770;2023-03-31T05:21:28;95548.00;;;13.30
14851;BMP180;7517;48.400;11.770;2023-03-31T05:23:57;95534.00;;;13.40
14851;BMP180;7517;48.400;11.770;2023-03-31T05:26:24;95536.00;;;13.40
14851;BMP180;7517;48.400;11.770;2023-03-31T05:28:54;95534.00;;;13.40
14851;BMP180;7517;48.400;11.770;2023-03-31T05:31:22;95517.00;;;13.40
14851;BMP180;7517;48.400;11.770;2023-03-31T05:33:50;95520.00;;;13.40
14851;BMP180;7517;48.400;11.770;2023-03-31T05:36:17;95514.00;;;13.40
14851;BMP180;7517;48.400;11.770;2023-03-31T05:38:48;95503.00;;;13.40
14851;BMP180;7517;48.400;11.770;2023-03-31T05:41:17;95497.00;;;13.40
14851;BMP180;7517;48.400;11.770;2023-03-31T05:43:44;95496.00;;;13.40
14851;BMP180;7517;48.400;11.770;2023-03-31T05:46:14;95483.00;;;13.50
14851;BMP180;7517;48.400;11.770;2023-03-31T05:48:43;95466.00;;;13.50
14851;BMP180;7517;48.400;11.770;2023-03-31T05:51:10;95451.00;;;13.60
14851;BMP180;7517;48.400;11.770;2023-03-31T05:53:38;95436.00;;;13.60
14851;BMP180;7517;48.400;11.770;2023-03-31T05:56:08;95434.00;;;13.70
14851;BMP180;7517;48.400;11.770;2023-03-31T05:58:37;95431.00;;;13.70
14851;BMP180;7517;48.400;11.770;2023-03-31T06:01:07;95428.00;;;13.80
14851;BMP180;7517;48.400;11.770;2023-03-31T06:03:39;95428.00;;;13.80
14851;BMP180;7517;48.400;11.770;2023-03-31T06:06:09;95420.00;;;13.80
14851;BMP180;7517;48.400;11.770;2023-03-31T06:08:38;95415.00;;;13.90
14851;BMP180;7517;48.400;11.770;2023-03-31T06:11:07;95398.00;;;13.90
14851;BMP180;7517;48.400;11.770;2023-03-31T06:13:36;95388.00;;;13.90
14851;BMP180;7517;48.400;11.770;2023-03-31T06:16:04;95376.00;;;13.90
14851;BMP180;7517;48.400;11.770;2023-03-31T06:18:36;95373.00;;;13.90
14851;BMP180;7517;48.400;11.770;2023-03-31T06:21:04;95375.00;;;13.90
14851;BMP180;7517;48.400;11.770;2023-03-31T06:23:33;95368.00;;;14.00
14851;BMP180;7517;48.400;11.770;2023-03-31T06:26:02;95369.00;;;14.00
14851;BMP180;7517;48.400;11.770;2023-03-31T06:28:31;95357.00;;;14.10
14851;BMP180;7517;48.400;11.770;2023-03-31T06:31:02;95352.00;;;14.20
14851;BMP180;7517;48.400;11.770;2023-03-31T06:33:31;95345.00;;;14.20
14851;BMP180;7517;48.400;11.770;2023-03-31T06:36:00;95329.00;;;14.20
14851;BMP180;7517;48.400;11.770;2023-03-31T06:38:30;95329.00;;;14.30
14851;BMP180;7517;48.400;11.770;2023-03-31T06:40:58;95338.00;;;14.40
14851;BMP180;7517;48.400;11.770;2023-03-31T06:43:25;95341.00;;;14.40
14851;BMP180;7517;48.400;11.770;2023-03-31T06:45:53;95335.00;;;14.50
14851;BMP180;7517;48.400;11.770;2023-03-31T06:48:22;95336.00;;;14.50
14851;BMP180;7517;48.400;11.770;2023-03-31T06:50:51;95324.00;;;14.60
14851;BMP180;7517;48.400;11.770;2023-03-31T06:53:21;95326.00;;;14.60
14851;BMP180;7517;48.400;11.770;2023-03-31T06:55:48;95312.00;;;14.70
14851;BMP180;7517;48.400;11.770;2023-03-31T06:58:15;95313.00;;;14.70
14851;BMP180;7517;48.400;11.770;2023-03-31T07:00:45;95319.00;;;14.80
14851;BMP180;7517;48.400;11.770;2023-03-31T07:03:13;95325.00;;;14.80
14851;BMP180;7517;48.400;11.770;2023-03-31T07:05:48;95327.00;;;14.80
14851;BMP180;7517;48.400;11.770;2023-03-31T07:08:17;95343.00;;;14.80
14851;BMP180;7517;48.400;11.770;2023-03-31T07:10:47;95352.00;;;14.80
14851;BMP180;7517;48.400;11.770;2023-03-31T07:13:15;95376.00;;;14.80
14851;BMP180;7517;48.400;11.770;2023-03-31T07:15:45;95391.00;;;14.80
14851;BMP180;7517;48.400;11.770;2023-03-31T07:18:13;95407.00;;;14.80
14851;BMP180;7517;48.400;11.770;2023-03-31T07:20:41;95425.00;;;14.80
14851;BMP180;7517;48.400;11.770;2023-03-31T07:23:09;95440.00;;;14.80
14851;BMP180;7517;48.400;11.770;2023-03-31T07:25:36;95476.00;;;14.70
14851;BMP180;7517;48.400;11.770;2023-03-31T07:28:05;95462.00;;;14.70
14851;BMP180;7517;48.400;11.770;2023-03-31T07:30:33;95458.00;;;14.70
14851;BMP180;7517;48.400;11.770;2023-03-31T07:33:01;95469.00;;;14.70
14851;BMP180;7517;48.400;11.770;2023-03-31T07:35:29;95475.00;;;14.70
14851;BMP180;7517;48.400;11.770;2023-03-31T07:37:56;95454.00;;;14.70
14851;BMP180;7517;48.400;11.770;2023-03-31T07:40:26;95451.00;;;14.70
14851;BMP180;7517;48.400;11.770;2023-03-31T07:42:55;95477.00;;;14.70
14851;BMP180;7517;48.400;11.770;2023-03-31T07:45:25;95479.00;;;14.70
14851;BMP180;7517;48.400;11.770;2023-03-31T07:47:53;95482.00;;;14.60
14851;BMP180;7517;48.400;11.770;2023-03-31T07:50:22;95465.00;;;14.60
14851;BMP180;7517;48.400;11.770;2023-03-31T07:52:50;95478.00;;;14.60
14851;BMP180;7517;48.400;11.770;2023-03-31T07:55:18;95421.00;;;14.60
14851;BMP180;7517;48.400;11.770;2023-03-31T07:57:46;95374.00;;;14.50
14851;BMP180;7517;48.400;11.770;2023-03-31T08:00:16;95360.00;;;14.50
14851;BMP180;7517;48.400;11.770;2023-03-31T08:02:46;95344.00;;;14.50
14851;BMP180;7517;48.400;11.770;2023-03-31T08:05:16;95348.00;;;14.50
14851;BMP180;7517;48.400;11.770;2023-03-31T08:07:48;95338.00;;;14.50
14851;BMP180;7517;48.400;11.770;2023-03-31T08:10:19;95329.00;;;14.60
14851;BMP180;7517;48.400;11.770;2023-03-31T08:12:47;95348.00;;;14.60
14851;BMP180;7517;48.400;11.770;2023-03-31T08:15:15;95329.00;;;14.70
14851;BMP180;7517;48.400;11.770;2023-03-31T08:17:44;95321.00;;;14.70
14851;BMP180;7517;48.400;11.770;2023-03-31T08:20:13;95310.00;;;14.70
14851;BMP180;7517;48.400;11.770;2023-03-31T08:22:41;95287.00;;;14.60
14851;BMP180;7517;48.400;11.770;2023-03-31T08:25:09;95288.00;;;14.60
14851;BMP180;7517;48.400;11.770;2023-03-31T08:27:38;95272.00;;;14.70
14851;BMP180;7517;48.400;11.770;2023-03-31T08:30:10;95281.00;;;14.70
14851;BMP180;7517;48.400;11.770;2023-03-31T08:32:39;95273.00;;;14.70
14851;BMP180;7517;48.400;11.770;2023-03-31T08:35:13;95261.00;;;14.80
14851;BMP180;7517;48.400;11.770;2023-03-31T08:37:41;95247.00;;;14.80
14851;BMP180;7517;48.400;11.770;2023-03-31T08:40:18;95243.00;;;14.80
14851;BMP180;7517;48.400;11.770;2023-03-31T08:42:49;95240.00;;;14.90
14851;BMP180;7517;48.400;11.770;2023-03-31T08:45:22;95237.00;;;14.90
14851;BMP180;7517;48.400;11.770;2023-03-31T08:47:56;95220.00;;;14.90
14851;BMP180;7517;48.400;11.770;2023-03-31T08:50:30;95230.00;;;14.90
14851;BMP180;7517;48.400;11.770;2023-03-31T08:53:07;95248.00;;;14.90
14851;BMP180;7517;48.400;11.770;2023-03-31T08:55:46;95251.00;;;14.90
14851;BMP180;7517;48.400;11.770;2023-03-31T08:58:31;95260.00;;;14.90
14851;BMP180;7517;48.400;11.770;2023-03-31T09:01:10;95293.00;;;15.00
14851;BMP180;7517;48.400;11.770;2023-03-31T09:03:55;95330.00;;;15.00
14851;BMP180;7517;48.400;11.770;2023-03-31T09:06:35;95345.00;;;15.10
14851;BMP180;7517;48.400;11.770;2023-03-31T09:09:10;95362.00;;;15.10
14851;BMP180;7517;48.400;11.770;2023-03-31T09:11:50;95414.00;;;15.20
14851;BMP180;7517;48.400;11.770;2023-03-31T09:14:30;95322.00;;;15.20
14851;BMP180;7517;48.400;11.770;2023-03-31T09:17:12;95326.00;;;15.30
14851;BMP180;7517;48.400;11.770;2023-03-31T09:19:48;95312.00;;;15.40
14851;BMP180;7517;48.400;11.770;2023-03-31T09:22:24;95296.00;;;15.40
14851;BMP180;7517;48.400;11.770;2023-03-31T09:24:58;95298.00;;;15.50
14851;BMP180;7517;48.400;11.770;2023-03-31T09:27:29;95313.00;;;15.60
14851;BMP180;7517;48.400;11.770;2023-03-31T09:30:09;95306.00;;;15.80
14851;BMP180;7517;48.400;11.770;2023-03-31T09:32:39;95296.00;;;15.90
14851;BMP180;7517;48.400;11.770;2023-03-31T09:35:19;95292.00;;;16.00
14851;BMP180;7517;48.400;11.770;2023-03-31T09:37:50;95286.00;;;16.20
14851;BMP180;7517;48.400;11.770;2023-03-31T09:40:21;95278.00;;;16.40
14851;BMP180;7517;48.400;11.770;2023-03-31T09:42:57;95260.00;;;16.80
14851;BMP180;7517;48.400;11.770;2023-03-31T09:45:26;95261.00;;;17.20
14851;BMP180;7517;48.400;11.770;2023-03-31T09:47:59;95243.00;;;17.60
14851;BMP180;7517;48.400;11.770;2023-03-31T09:50:29;95241.00;;;17.90
14851;BMP180;7517;48.400;11.770;2023-03-31T09:53:00;95240.00;;;18.00
14851;BMP180;7517;48.400;11.770;2023-03-31T09:55:40;95265.00;;;18.30
14851;BMP180;7517;48.400;11.770;2023-03-31T09:58:15;95261.00;;;18.60
14851;BMP180;7517;48.400;11.770;2023-03-31T10:00:57;95257.00;;;18.80
14851;BMP180;7517;48.400;11.770;2023-03-31T10:03:29;95262.00;;;19.10
14851;BMP180;7517;48.400;11.770;2023-03-31T10:06:10;95283.00;;;19.30
14851;BMP180;7517;48.400;11.770;2023-03-31T10:08:42;95273.00;;;19.60
14851;BMP180;7517;48.400;11.770;2023-03-31T10:11:14;95270.00;;;19.80
14851;BMP180;7517;48.400;11.770;2023-03-31T10:13:47;95276.00;;;19.90
14851;BMP180;7517;48.400;11.770;2023-03-31T10:16:25;95271.00;;;20.10
14851;BMP180;7517;48.400;11.770;2023-03-31T10:18:53;95262.00;;;20.20
14851;BMP180;7517;48.400;11.770;2023-03-31T10:21:24;95259.00;;;20.30
14851;BMP180;7517;48.400;11.770;2023-03-31T10:23:54;95254.00;;;20.30
14851;BMP180;7517;48.400;11.770;2023-03-31T10:26:26;95246.00;;;20.40
14851;BMP180;7517;48.400;11.770;2023-03-31T10:28:54;95238.00;;;20.70
14851;BMP180;7517;48.400;11.770;2023-03-31T10:31:26;95238.00;;;20.90
14851;BMP180;7517;48.400;11.770;2023-03-31T10:34:05;95231.00;;;21.20
14851;BMP180;7517;48.400;11.770;2023-03-31T10:36:33;95221.00;;;21.30
14851;BMP180;7517;48.400;11.770;2023-03-31T10:39:06;95225.00;;;21.40
14851;BMP180;7517;48.400;11.770;2023-03-31T10:41:34;95206.00;;;21.40
14851;BMP180;7517;48.400;11.770;2023-03-31T10:44:03;95214.00;;;21.40
14851;BMP180;7517;48.400;11.770;2023-03-31T10:46:42;95212.00;;;21.30
14851;BMP180;7517;48.400;11.770;2023-03-31T10:49:23;95194.00;;;21.30
14851;BMP180;7517;48.400;11.770;2023-03-31T10:51:53;95182.00;;;21.20
14851;BMP180;7517;48.400;11.770;2023-03-31T10:54:23;95177.00;;;21.20
14851;BMP180;7517;48.400;11.770;2023-03-31T10:56:53;95182.00;;;21.10
14851;BMP180;7517;48.400;11.770;2023-03-31T10:59:42;95185.00;;;21.10
14851;BMP180;7517;48.400;11.770;2023-03-31T11:02:57;95181.00;;;21.00
14851;BMP180;7517;48.400;11.770;2023-03-31T11:05:32;95166.00;;;20.90
14851;BMP180;7517;48.400;11.770;2023-03-31T11:08:34;95159.00;;;20.80
14851;BMP180;7517;48.400;11.770;2023-03-31T11:11:25;95151.00;;;20.80
14851;BMP180;7517;48.400;11.770;2023-03-31T11:14:07;95156.00;;;20.70
14851;BMP180;7517;48.400;11.770;2023-03-31T11:16:46;95134.00;;;20.70
14851;BMP180;7517;48.400;11.770;2023-03-31T11:19:30;95122.00;;;20.60
14851;BMP180;7517;48.400;11.770;2023-03-31T11:22:12;95133.00;;;20.50
14851;BMP180;7517;48.400;11.770;2023-03-31T11:25:13;95142.00;;;20.50
14851;BMP180;7517;48.400;11.770;2023-03-31T11:28:04;95128.00;;;20.50
14851;BMP180;7517;48.400;11.770;2023-03-31T11:30:37;95128.00;;;20.40
14851;BMP180;7517;48.400;11.770;2023-03-31T11:33:29;95137.00;;;20.40
14851;BMP180;7517;48.400;11.770;2023-03-31T11:36:17;95158.00;;;20.40
14851;BMP180;7517;48.400;11.770;2023-03-31T11:39:16;95161.00;;;20.20
14851;BMP180;7517;48.400;11.770;2023-03-31T11:41:51;95189.00;;;20.10
14851;BMP180;7517;48.400;11.770;2023-03-31T11:44:24;95140.00;;;20.00
14851;BMP180;7517;48.400;11.770;2023-03-31T11:46:56;95110.00;;;19.80
14851;BMP180;7517;48.400;11.770;2023-03-31T11:49:30;95073.00;;;19.60
14851;BMP180;7517;48.400;11.770;2023-03-31T11:52:07;95097.00;;;19.40
14851;BMP180;7517;48.400;11.770;2023-03-31T11:54:41;95110.00;;;19.30
14851;BMP180;7517;48.400;11.770;2023-03-31T11:57:16;95110.00;;;19.20
14851;BMP180;7517;48.400;11.770;2023-03-31T11:59:55;95101.00;;;19.10
14851;BMP180;7517;48.400;11.770;2023-03-31T12:02:35;95088.00;;;19.00
14851;BMP180;7517;48.400;11.770;2023-03-31T12:05:08;95081.00;;;19.10
14851;BMP180;7517;48.400;11.770;2023-03-31T12:07:40;95079.00;;;19.10
14851;BMP180;7517;48.400;11.770;2023-03-31T12:10:19;95081.00;;;19.20
14851;BMP180;7517;48.400;11.770;2023-03-31T12:12:54;95071.00;;;19.30
14851;BMP180;7517;48.400;11.770;2023-03-31T12:15:32;95053.00;;;19.30
14851;BMP180;7517;48.400;11.770;2023-03-31T12:18:09;95056.00;;;19.40
14851;BMP180;7517;48.400;11.770;2023-03-31T12:20:44;95054.00;;;19.50
14851;BMP180;7517;48.400;11.770;2023-03-31T12:23:19;95040.00;;;19.60
14851;BMP180;7517;48.400;11.770;2023-03-31T12:25:54;95040.00;;;19.60
14851;BMP180;7517;48.400;11.770;2023-03-31T12:28:26;95045.00;;;19.60
14851;BMP180;7517;48.400;11.770;2023-03-31T12:31:02;95031.00;;;19.60
14851;BMP180;7517;48.400;11.770;2023-03-31T12:33:34;95020.00;;;19.60
14851;BMP180;7517;48.400;11.770;2023-03-31T12:36:19;95005.00;;;19.60
14851;BMP180;7517;48.400;11.770;2023-03-31T12:39:12;94998.00;;;19.60
14851;BMP180;7517;48.400;11.770;2023-03-31T12:45:26;95012.00;;;19.60
14851;BMP180;7517;48.400;11.770;2023-03-31T12:48:27;95002.00;;;19.60
14851;BMP180;7517;48.400;11.770;2023-03-31T12:51:13;95000.00;;;19.60
14851;BMP180;7517;48.400;11.770;2023-03-31T12:54:01;95016.00;;;19.60
14851;BMP180;7517;48.400;11.770;2023-03-31T12:57:21;95014.00;;;19.70
14851;BMP180;7517;48.400;11.770;2023-03-31T13:00:29;95020.00;;;19.80
14851;BMP180;7517;48.400;11.770;2023-03-31T13:06:51;95034.00;;;19.90
14851;BMP180;7517;48.400;11.770;2023-03-31T13:09:48;95022.00;;;20.00
14851;BMP180;7517;48.400;11.770;2023-03-31T13:12:21;95031.00;;;20.00
14851;BMP180;7517;48.400;11.770;2023-03-31T13:14:51;95046.00;;;20.00
14851;BMP180;7517;48.400;11.770;2023-03-31T13:17:55;95025.00;;;20.00
14851;BMP180;7517;48.400;11.770;2023-03-31T13:20:42;95013.00;;;19.90
14851;BMP180;7517;48.400;11.770;2023-03-31T13:23:20;95002.00;;;19.90
14851;BMP180;7517;48.400;11.770;2023-03-31T13:25:52;94999.00;;;19.80
14851;BMP180;7517;48.400;11.770;2023-03-31T13:28:33;95012.00;;;19.80
14851;BMP180;7517;48.400;11.770;2023-03-31T13:31:07;95003.00;;;19.70
14851;BMP180;7517;48.400;11.770;2023-03-31T13:33:46;95006.00;;;19.70
14851;BMP180;7517;48.400;11.770;2023-03-31T13:36:48;94984.00;;;19.50
14851;BMP180;7517;48.400;11.770;2023-03-31T13:43:25;95003.00;;;19.40
14851;BMP180;7517;48.400;11.770;2023-03-31T13:46:43;95026.00;;;19.40
14851;BMP180;7517;48.400;11.770;2023-03-31T13:49:50;95023.00;;;19.40
14851;BMP180;7517;48.400;11.770;2023-03-31T13:52:43;95051.00;;;19.20
14851;BMP180;7517;48.400;11.770;2023-03-31T13:56:01;95049.00;;;19.00
14851;BMP180;7517;48.400;11.770;2023-03-31T13:59:04;95054.00;;;18.90
14851;BMP180;7517;48.400;11.770;2023-03-31T14:02:26;95025.00;;;18.80
14851;BMP180;7517;48.400;11.770;2023-03-31T14:05:24;95033.00;;;18.60
14851;BMP180;7517;48.400;11.770;2023-03-31T14:07:57;95032.00;;;18.50
14851;BMP180;7517;48.400;11.770;2023-03-31T14:10:30;95037.00;;;18.50
14851;BMP180;7517;48.400;11.770;2023-03-31T14:13:10;95030.00;;;18.40
14851;BMP180;7517;48.400;11.770;2023-03-31T14:15:42;95049.00;;;18.30
14851;BMP180;7517;48.400;11.770;2023-03-31T14:18:20;95043.00;;;18.20
14851;BMP180;7517;48.400;11.770;2023-03-31T14:21:07;95033.00;;;18.20
14851;BMP180;7517;48.400;11.770;2023-03-31T14:23:52;95048.00;;;18.10
14851;BMP180;7517;48.400;11.770;2023-03-31T14:26:43;95057.00;;;18.10
14851;BMP180;7517;48.400;11.770;2023-03-31T14:29:23;95058.00;;;18.00
14851;BMP180;7517;48.400;11.770;2023-03-31T14:32:03;95038.00;;;18.00
14851;BMP180;7517;48.400;11.770;2023-03-31T14:34:51;95015.00;;;17.90
14851;BMP180;7517;48.400;11.770;2023-03-31T14:37:23;95016.00;;;17.90
14851;BMP180;7517;48.400;11.770;2023-03-31T14:39:53;95014.00;;;17.80
14851;BMP180;7517;48.400;11.770;2023-03-31T14:42:34;95004.00;;;17.80
14851;BMP180;7517;48.400;11.770;2023-03-31T14:45:15;95009.00;;;17.80
14851;BMP180;7517;48.400;11.770;2023-03-31T14:47:53;95008.00;;;17.80
14851;BMP180;7517;48.400;11.770;2023-03-31T14:50:21;95015.00;;;17.80
14851;BMP180;7517;48.400;11.770;2023-03-31T14:52:54;95025.00;;;17.80
14851;BMP180;7517;48.400;11.770;2023-03-31T14:55:25;95039.00;;;17.90
14851;BMP180;7517;48.400;11.770;2023-03-31T14:57:59;95035.00;;;17.90
14851;BMP180;7517;48.400;11.770;2023-03-31T15:00:32;95038.00;;;17.90
14851;BMP180;7517;48.400;11.770;2023-03-31T15:03:02;95044.00;;;17.90
14851;BMP180;7517;48.400;11.770;2023-03-31T15:05:35;95057.00;;;17.90
14851;BMP180;7517;48.400;11.770;2023-03-31T15:08:07;95070.00;;;17.90
14851;BMP180;7517;48.400;11.770;2023-03-31T15:10:41;95084.00;;;17.90